EFTP/TMP METAR and TAF weather

Enter ICAO airport designator
Station Type Date Time Source
EFTP METAR 2021/07/28 20:20 UTC NOAA

EFTP 282020Z AUTO 13009KT 7000 -DZ OVC010 18/17 Q1001


Station Type Date Time Source
EFTP Decoded METAR 2021/07/28 20:20 UTC NOAA

Tampere / Pirkkala, Finland (EFTP) 61-25N 023-35E 112M
Jul 28, 2021 - 04:20 PM EDT / 2021.07.28 2020 UTC
Wind: from the SE (130 degrees) at 10 MPH (9 KT):0
Visibility: 4 mile(s):0
Sky conditions: overcast
Weather: light drizzle
Temperature: 64 F (18 C)
Dew Point: 62 F (17 C)
Relative Humidity: 93%
Pressure (altimeter): 29.56 in. Hg (1001 hPa)
ob: EFTP 282020Z AUTO 13009KT 7000 -DZ OVC010 18/17 Q1001
cycle: 20

Station Type Date Time Source
EFTP TAF 2021/07/28 21:42 UTC NOAA

TAF EFTP 282031Z 2821/2921 14009KT 9999 -RA BKN020
TEMPO 2821/2824 4000 DZ BKN006 PROB40
TEMPO 2900/2906 BKN006 FEW030CB
TEMPO 2906/2914 4000 TSRA FEW030CB

Example: see airport list